createdAt,value
2023-05-14T00:01:46.517Z,23.11
2023-05-14T00:04:14.594Z,22.99
2023-05-14T00:06:42.765Z,23.09
2023-05-14T00:09:10.737Z,22.99
2023-05-14T00:11:38.903Z,22.90
2023-05-14T00:14:08.307Z,23.07
2023-05-14T00:16:36.513Z,23.06
2023-05-14T00:19:04.610Z,23.05
2023-05-14T00:21:32.940Z,23.03
2023-05-14T00:24:00.922Z,23.03
2023-05-14T00:26:28.997Z,23.01
2023-05-14T00:28:56.904Z,22.90
2023-05-14T00:31:26.401Z,22.94
2023-05-14T00:33:54.471Z,22.97
2023-05-14T00:36:22.513Z,22.97
2023-05-14T00:38:50.787Z,22.95
2023-05-14T00:41:18.754Z,22.97
2023-05-14T00:43:46.746Z,22.97
2023-05-14T00:46:16.440Z,22.95
2023-05-14T00:48:46.148Z,22.96
2023-05-14T00:51:14.621Z,22.94
2023-05-14T00:53:43.063Z,22.93
2023-05-14T00:56:11.612Z,22.93
2023-05-14T00:58:39.648Z,22.92
2023-05-14T01:01:07.888Z,22.89
2023-05-14T01:03:37.033Z,22.91
2023-05-14T01:06:15.672Z,22.90
2023-05-14T01:08:51.892Z,22.90
2023-05-14T01:11:23.779Z,22.89
2023-05-14T01:14:04.910Z,22.88
2023-05-14T01:16:35.235Z,22.87
2023-05-14T01:19:06.108Z,22.86
2023-05-14T01:21:44.624Z,22.82
2023-05-14T01:24:12.644Z,22.83
2023-05-14T01:26:41.001Z,22.82
2023-05-14T01:29:14.946Z,22.82
2023-05-14T01:31:46.722Z,22.81
2023-05-14T01:34:15.979Z,22.79
2023-05-14T01:36:45.934Z,22.71
2023-05-14T01:39:16.019Z,22.74
2023-05-14T01:41:45.151Z,22.64
2023-05-14T01:44:13.906Z,22.73
2023-05-14T01:46:41.942Z,22.64
2023-05-14T01:49:09.973Z,22.71
2023-05-14T01:51:37.935Z,22.71
2023-05-14T01:54:07.393Z,22.70
2023-05-14T01:56:35.404Z,22.59
2023-05-14T01:59:03.596Z,22.67
2023-05-14T02:01:31.747Z,22.66
2023-05-14T02:04:01.048Z,22.65
2023-05-14T02:06:29.150Z,22.64
2023-05-14T02:08:57.396Z,22.63
2023-05-14T02:11:26.802Z,22.61
2023-05-14T02:13:54.810Z,22.60
2023-05-14T02:16:22.914Z,22.59
2023-05-14T02:18:52.991Z,22.59
2023-05-14T02:21:21.001Z,22.60
2023-05-14T02:23:49.573Z,22.60
2023-05-14T02:26:17.850Z,22.60
2023-05-14T02:28:47.176Z,22.59
2023-05-14T02:31:17.587Z,22.59
2023-05-14T02:33:45.852Z,22.59
2023-05-14T02:36:13.840Z,22.58
2023-05-14T02:38:41.872Z,22.56
2023-05-14T02:41:09.820Z,22.58
2023-05-14T02:43:37.761Z,22.57
2023-05-14T02:46:07.307Z,22.58
2023-05-14T02:48:35.391Z,22.58
2023-05-14T02:51:03.557Z,22.56
2023-05-14T02:53:31.590Z,22.54
2023-05-14T02:55:59.647Z,22.57
2023-05-14T02:58:28.410Z,22.55
2023-05-14T03:00:57.211Z,22.52
2023-05-14T03:03:27.145Z,22.55
2023-05-14T03:05:55.571Z,22.54
2023-05-14T03:08:23.703Z,22.39
2023-05-14T03:10:51.768Z,22.55
2023-05-14T03:13:20.792Z,22.55
2023-05-14T03:15:48.984Z,22.55
2023-05-14T03:18:17.310Z,22.52
2023-05-14T03:20:48.700Z,22.56
2023-05-14T03:23:16.807Z,22.56
2023-05-14T03:25:44.883Z,22.59
2023-05-14T03:28:13.057Z,22.50
2023-05-14T03:30:41.198Z,22.67
2023-05-14T03:33:09.399Z,22.61
2023-05-14T03:35:37.485Z,22.73
2023-05-14T03:38:07.521Z,22.85
2023-05-14T03:40:35.775Z,22.89
2023-05-14T03:43:03.868Z,22.94
2023-05-14T03:45:32.028Z,22.98
2023-05-14T03:48:00.467Z,23.04
2023-05-14T03:50:28.730Z,23.08
2023-05-14T03:52:56.761Z,23.12
2023-05-14T03:55:26.148Z,22.99
2023-05-14T03:57:54.080Z,23.20
2023-05-14T04:00:22.853Z,23.24
2023-05-14T04:02:52.878Z,23.27
2023-05-14T04:05:21.209Z,23.31
2023-05-14T04:07:49.305Z,23.36
2023-05-14T04:10:17.327Z,23.40
2023-05-14T04:12:46.897Z,23.44
2023-05-14T04:15:15.268Z,23.48
2023-05-14T04:17:44.119Z,23.52
2023-05-14T04:20:14.002Z,23.52
2023-05-14T04:22:42.034Z,23.57
2023-05-14T04:25:10.377Z,23.62
2023-05-14T04:27:38.284Z,23.66
2023-05-14T04:30:09.517Z,23.71
2023-05-14T04:32:37.902Z,23.70
2023-05-14T04:35:07.061Z,23.77
2023-05-14T04:37:36.451Z,23.82
2023-05-14T04:40:04.814Z,23.85
2023-05-14T04:42:33.079Z,23.89
2023-05-14T04:45:01.127Z,23.94
2023-05-14T04:47:30.915Z,24.00
2023-05-14T04:49:58.953Z,24.03
2023-05-14T04:52:27.296Z,24.08
2023-05-14T04:54:55.357Z,24.12
2023-05-14T04:57:23.355Z,24.16
2023-05-14T04:59:51.342Z,24.17
2023-05-14T05:02:19.457Z,24.22
2023-05-14T05:04:48.859Z,24.25
2023-05-14T05:07:16.875Z,24.28
2023-05-14T05:09:44.963Z,24.32
2023-05-14T05:12:12.922Z,24.34
2023-05-14T05:14:40.797Z,24.37
2023-05-14T05:17:08.726Z,24.27
2023-05-14T05:19:43.575Z,24.41
2023-05-14T05:22:13.759Z,24.47
2023-05-14T05:24:41.784Z,24.50
2023-05-14T05:27:09.965Z,24.52
2023-05-14T05:29:38.336Z,24.45
2023-05-14T05:32:07.436Z,24.58
2023-05-14T05:34:36.064Z,24.61
2023-05-14T05:37:05.957Z,24.33
2023-05-14T05:39:35.788Z,24.68
2023-05-14T05:42:03.887Z,24.68
2023-05-14T05:44:32.058Z,24.72
2023-05-14T05:47:00.282Z,24.74
2023-05-14T05:49:28.258Z,24.77
2023-05-14T05:51:56.269Z,24.80
2023-05-14T05:54:24.989Z,24.83
2023-05-14T05:56:54.424Z,24.83
2023-05-14T05:59:22.468Z,24.88
2023-05-14T06:01:50.516Z,24.91
2023-05-14T06:04:18.477Z,24.95
2023-05-14T06:06:46.624Z,24.97
2023-05-14T06:09:14.648Z,24.51
2023-05-14T06:11:42.696Z,25.03
2023-05-14T06:14:12.111Z,25.05
2023-05-14T06:16:40.230Z,25.08
2023-05-14T06:19:08.482Z,25.12
2023-05-14T06:21:36.712Z,25.14
2023-05-14T06:24:05.054Z,25.16
2023-05-14T06:26:33.017Z,25.18
2023-05-14T06:29:01.130Z,25.22
2023-05-14T06:31:30.628Z,25.24
2023-05-14T06:33:58.572Z,25.26
2023-05-14T06:36:26.562Z,25.29
2023-05-14T06:38:54.522Z,25.31
2023-05-14T06:41:22.681Z,25.34
2023-05-14T06:43:50.837Z,25.37
2023-05-14T06:46:18.828Z,25.34
2023-05-14T06:48:48.279Z,25.42
2023-05-14T06:51:16.372Z,25.43
2023-05-14T06:53:44.340Z,25.45
2023-05-14T06:56:13.627Z,25.46
2023-05-14T06:58:41.599Z,25.49
2023-05-14T07:01:09.572Z,25.51
2023-05-14T07:03:37.593Z,25.50
2023-05-14T07:06:07.926Z,25.55
2023-05-14T07:08:36.063Z,25.56
2023-05-14T07:11:04.213Z,25.56
2023-05-14T07:13:32.169Z,25.59
2023-05-14T07:16:00.481Z,25.60
2023-05-14T07:18:28.911Z,25.62
2023-05-14T07:20:57.073Z,25.62
2023-05-14T07:23:26.444Z,25.64
2023-05-14T07:25:54.456Z,25.63
2023-05-14T07:28:22.520Z,25.66
2023-05-14T07:30:50.574Z,25.65
2023-05-14T07:33:18.561Z,25.67
2023-05-14T07:35:46.724Z,25.65
2023-05-14T07:38:14.833Z,25.68
2023-05-14T07:40:44.467Z,25.70
2023-05-14T07:43:12.831Z,25.62
2023-05-14T07:45:40.872Z,25.69
2023-05-14T07:48:09.103Z,25.68
2023-05-14T07:50:38.337Z,25.51
2023-05-14T07:53:06.313Z,25.68
2023-05-14T07:55:34.317Z,25.54
2023-05-14T07:58:03.819Z,25.69
2023-05-14T08:00:31.949Z,25.69
2023-05-14T08:03:00.221Z,25.68
2023-05-14T08:05:28.568Z,25.69
2023-05-14T08:07:56.574Z,25.71
2023-05-14T08:10:25.016Z,25.73
2023-05-14T08:12:53.173Z,25.71
2023-05-14T08:15:23.098Z,25.78
2023-05-14T08:17:51.670Z,25.78
2023-05-14T08:20:20.012Z,25.81
2023-05-14T08:22:48.047Z,25.82
2023-05-14T08:25:16.042Z,25.83
2023-05-14T08:27:43.969Z,25.85
2023-05-14T08:30:12.680Z,25.84
2023-05-14T08:32:42.515Z,25.88
2023-05-14T08:35:10.939Z,25.86
2023-05-14T08:37:38.955Z,25.89
2023-05-14T08:40:08.730Z,25.89
2023-05-14T08:42:40.462Z,25.91
2023-05-14T08:45:16.795Z,25.91
2023-05-14T08:47:50.484Z,25.91
2023-05-14T08:50:21.886Z,25.91
2023-05-14T08:52:51.476Z,25.92
2023-05-14T08:55:20.075Z,25.91
2023-05-14T08:57:48.349Z,25.92
2023-05-14T09:00:17.001Z,25.92
2023-05-14T09:02:48.840Z,25.93
2023-05-14T09:05:19.948Z,25.91
2023-05-14T09:07:48.109Z,25.94
2023-05-14T09:10:17.380Z,25.94
2023-05-14T09:12:45.560Z,25.94
2023-05-14T09:15:13.892Z,25.92
2023-05-14T09:17:42.109Z,25.94
2023-05-14T09:20:14.120Z,25.93
2023-05-14T09:22:43.017Z,25.81
2023-05-14T09:25:12.515Z,25.92
2023-05-14T09:27:40.766Z,25.93
2023-05-14T09:30:10.881Z,25.94
2023-05-14T09:32:40.928Z,25.93
2023-05-14T09:35:18.471Z,25.93
2023-05-14T09:37:48.048Z,25.94
2023-05-14T09:40:17.218Z,25.93
2023-05-14T09:42:45.781Z,25.92
2023-05-14T09:45:13.830Z,25.92
2023-05-14T09:47:42.138Z,25.89
2023-05-14T09:50:10.714Z,25.89
2023-05-14T09:52:40.349Z,25.90
2023-05-14T09:55:09.263Z,25.89
2023-05-14T09:57:37.320Z,25.89
2023-05-14T10:00:06.789Z,25.87
2023-05-14T10:02:38.941Z,25.86
2023-05-14T10:05:09.488Z,25.86
2023-05-14T10:07:43.607Z,25.86
2023-05-14T10:10:16.437Z,25.83
2023-05-14T10:12:50.425Z,25.82
2023-05-14T10:15:23.061Z,25.80
2023-05-14T10:17:56.887Z,25.80
2023-05-14T10:20:27.176Z,25.79
2023-05-14T10:22:57.325Z,25.60
2023-05-14T10:25:25.814Z,25.76
2023-05-14T10:27:54.665Z,25.73
2023-05-14T10:30:24.097Z,25.75
2023-05-14T10:33:07.547Z,25.74
2023-05-14T10:35:57.645Z,25.70
2023-05-14T10:38:29.515Z,25.73
2023-05-14T10:40:59.904Z,25.72
2023-05-14T10:43:29.461Z,25.72
2023-05-14T10:45:58.697Z,25.67
2023-05-14T10:48:27.153Z,25.70
2023-05-14T10:50:56.585Z,25.70
2023-05-14T10:53:34.674Z,25.71
2023-05-14T10:56:07.469Z,25.70
2023-05-14T10:58:38.234Z,25.70
2023-05-14T11:01:08.452Z,25.53
2023-05-14T11:03:43.068Z,25.68
2023-05-14T11:06:13.087Z,25.67
2023-05-14T11:08:42.984Z,25.63
2023-05-14T11:11:11.695Z,25.66
2023-05-14T11:13:39.771Z,25.65
2023-05-14T11:16:21.833Z,25.65
2023-05-14T11:18:55.841Z,25.44
2023-05-14T11:21:24.209Z,25.63
2023-05-14T11:23:55.546Z,25.67
2023-05-14T11:26:25.084Z,25.64
2023-05-14T11:28:53.169Z,25.65
2023-05-14T11:31:24.192Z,25.67
2023-05-14T11:33:53.418Z,25.45
2023-05-14T11:36:21.701Z,25.67
2023-05-14T11:38:51.537Z,25.66
2023-05-14T11:41:23.071Z,25.66
2023-05-14T11:43:51.593Z,25.67
2023-05-14T11:46:19.808Z,25.59
2023-05-14T11:48:48.420Z,25.62
2023-05-14T11:51:16.430Z,25.66
2023-05-14T11:53:45.961Z,25.65
2023-05-14T11:56:13.937Z,25.65
2023-05-14T11:58:49.182Z,25.64
2023-05-14T12:01:17.401Z,25.63
2023-05-14T12:03:45.614Z,25.64
2023-05-14T12:06:13.774Z,25.63
2023-05-14T12:08:41.736Z,25.63
2023-05-14T12:11:10.118Z,25.63
2023-05-14T12:13:38.189Z,25.62
2023-05-14T12:16:07.891Z,25.63
2023-05-14T12:18:36.104Z,25.63
2023-05-14T12:21:05.134Z,25.62
2023-05-14T12:23:33.845Z,25.63
2023-05-14T12:26:06.362Z,25.63
2023-05-14T12:28:37.720Z,25.62
2023-05-14T12:31:07.696Z,25.62
2023-05-14T12:33:35.754Z,25.62
2023-05-14T12:38:36.978Z,25.63
2023-05-14T12:41:05.283Z,25.64
2023-05-14T12:43:33.312Z,25.63
2023-05-14T12:46:01.388Z,25.63
2023-05-14T12:48:30.843Z,25.65
2023-05-14T12:50:58.832Z,25.64
2023-05-14T12:53:26.869Z,25.65
2023-05-14T12:55:55.980Z,25.65
2023-05-14T12:58:24.098Z,25.65
2023-05-14T13:00:52.190Z,25.64
2023-05-14T13:03:21.175Z,25.65
2023-05-14T13:05:51.767Z,25.65
2023-05-14T13:08:21.579Z,25.46
2023-05-14T13:10:49.600Z,25.65
2023-05-14T13:13:17.766Z,25.62
2023-05-14T13:15:46.727Z,25.63
2023-05-14T13:18:14.870Z,25.66
2023-05-14T13:20:43.371Z,25.66
2023-05-14T13:23:12.857Z,25.67
2023-05-14T13:25:41.022Z,25.67
2023-05-14T13:28:10.087Z,25.60
2023-05-14T13:30:38.172Z,25.65
2023-05-14T13:33:06.811Z,25.67
2023-05-14T13:35:35.646Z,25.67
2023-05-14T13:38:03.774Z,25.67
2023-05-14T13:40:33.151Z,25.67
2023-05-14T13:43:01.242Z,25.67
2023-05-14T13:45:29.272Z,25.64
2023-05-14T13:47:57.487Z,25.53
2023-05-14T13:50:25.578Z,25.67
2023-05-14T13:52:53.730Z,25.65
2023-05-14T13:55:21.710Z,25.66
2023-05-14T13:57:51.203Z,25.66
2023-05-14T14:00:19.904Z,25.66
2023-05-14T14:02:47.932Z,25.64
2023-05-14T14:05:16.186Z,25.63
2023-05-14T14:07:44.191Z,25.64
2023-05-14T14:10:12.324Z,25.64
2023-05-14T14:12:40.939Z,25.63
2023-05-14T14:15:11.806Z,25.62
2023-05-14T14:17:41.773Z,25.61
2023-05-14T14:20:10.548Z,25.62
2023-05-14T14:22:38.981Z,25.43
2023-05-14T14:25:08.450Z,25.60
2023-05-14T14:27:38.726Z,25.61
2023-05-14T14:30:09.641Z,25.62
2023-05-14T14:32:42.167Z,25.63
2023-05-14T14:35:10.624Z,25.61
2023-05-14T14:37:38.561Z,25.61
2023-05-14T14:40:08.510Z,25.61
2023-05-14T14:42:37.170Z,25.61
2023-05-14T14:45:06.204Z,25.61
2023-05-14T14:47:34.304Z,25.57
2023-05-14T14:50:04.242Z,25.53
2023-05-14T14:52:36.614Z,25.61
2023-05-14T14:55:05.960Z,25.61
2023-05-14T14:57:34.011Z,25.60
2023-05-14T15:00:07.008Z,25.61
2023-05-14T15:02:35.469Z,25.60
2023-05-14T15:05:06.068Z,25.59
2023-05-14T15:07:34.109Z,25.61
2023-05-14T15:10:02.104Z,25.60
2023-05-14T15:12:30.329Z,25.61
2023-05-14T15:14:58.796Z,25.61
2023-05-14T15:17:26.920Z,25.60
2023-05-14T15:19:55.303Z,25.61
2023-05-14T15:22:27.467Z,25.60
2023-05-14T15:24:55.486Z,25.61
2023-05-14T15:27:23.667Z,25.58
2023-05-14T15:29:51.681Z,25.61
2023-05-14T15:32:19.745Z,25.61
2023-05-14T15:34:47.801Z,25.60
2023-05-14T15:37:15.848Z,25.60
2023-05-14T15:39:45.356Z,25.61
2023-05-14T15:42:13.602Z,25.61
2023-05-14T15:44:41.692Z,25.57
2023-05-14T15:47:09.840Z,25.60
2023-05-14T15:49:37.834Z,25.59
2023-05-14T15:52:06.152Z,25.56
2023-05-14T15:54:34.190Z,25.58
2023-05-14T15:57:03.657Z,25.57
2023-05-14T15:59:31.623Z,25.56
2023-05-14T16:01:59.811Z,25.54
2023-05-14T16:04:27.848Z,25.54
2023-05-14T16:06:55.851Z,25.52
2023-05-14T16:09:23.906Z,25.53
2023-05-14T16:11:51.935Z,25.53
2023-05-14T16:14:24.119Z,25.43
2023-05-14T16:16:52.238Z,25.52
2023-05-14T16:19:20.858Z,25.52
2023-05-14T16:21:48.973Z,25.51
2023-05-14T16:24:19.003Z,25.53
2023-05-14T16:26:47.117Z,25.52
2023-05-14T16:29:15.124Z,25.51
2023-05-14T16:31:44.766Z,25.51
2023-05-14T16:34:12.840Z,25.48
2023-05-14T16:36:41.095Z,25.49
2023-05-14T16:39:09.168Z,25.48
2023-05-14T16:41:37.172Z,25.48
2023-05-14T16:44:05.388Z,25.49
2023-05-14T16:46:34.073Z,25.49
2023-05-14T16:49:03.640Z,25.48
2023-05-14T16:51:31.729Z,25.49
2023-05-14T16:53:59.770Z,25.48
2023-05-14T16:56:27.925Z,25.45
2023-05-14T16:58:55.852Z,25.48
2023-05-14T17:01:24.026Z,25.49
2023-05-14T17:03:52.055Z,25.48
2023-05-14T17:06:21.343Z,25.48
2023-05-14T17:08:52.174Z,25.48
2023-05-14T17:11:21.085Z,25.46
2023-05-14T17:13:49.022Z,25.46
2023-05-14T17:16:17.117Z,25.47
2023-05-14T17:18:45.956Z,25.47
2023-05-14T17:21:14.089Z,25.46
2023-05-14T17:23:43.515Z,25.41
2023-05-14T17:26:12.098Z,25.41
2023-05-14T17:28:40.062Z,25.41
2023-05-14T17:31:08.377Z,25.45
2023-05-14T17:33:36.644Z,25.45
2023-05-14T17:36:05.308Z,25.45
2023-05-14T17:38:33.253Z,25.43
2023-05-14T17:41:02.678Z,25.44
2023-05-14T17:43:30.630Z,25.43
2023-05-14T17:45:58.766Z,25.43
2023-05-14T17:48:26.823Z,25.42
2023-05-14T17:50:58.210Z,25.43
2023-05-14T17:53:26.328Z,25.41
2023-05-14T17:55:54.409Z,25.40
2023-05-14T17:58:23.855Z,25.40
2023-05-14T18:00:51.892Z,25.39
2023-05-14T18:03:20.308Z,25.37
2023-05-14T18:05:48.475Z,25.36
2023-05-14T18:08:16.466Z,25.37
2023-05-14T18:10:44.509Z,25.36
2023-05-14T18:13:12.484Z,25.35
2023-05-14T18:15:41.946Z,25.34
2023-05-14T18:18:10.232Z,25.33
2023-05-14T18:20:38.324Z,25.28
2023-05-14T18:23:06.303Z,25.31
2023-05-14T18:25:35.036Z,25.31
2023-05-14T18:28:03.155Z,25.30
2023-05-14T18:30:31.261Z,25.28
2023-05-14T18:33:00.758Z,25.28
2023-05-14T18:35:28.723Z,25.27
2023-05-14T18:37:56.625Z,25.25
2023-05-14T18:40:24.622Z,25.23
2023-05-14T18:42:52.750Z,25.24
2023-05-14T18:45:21.606Z,25.22
2023-05-14T18:47:49.701Z,25.22
2023-05-14T18:50:19.116Z,25.17
2023-05-14T18:52:47.239Z,25.18
2023-05-14T18:55:15.327Z,25.20
2023-05-14T18:57:43.321Z,25.18
2023-05-14T19:00:12.809Z,25.17
2023-05-14T19:02:40.918Z,25.16
2023-05-14T19:05:09.469Z,25.14
2023-05-14T19:07:40.773Z,25.13
2023-05-14T19:10:10.214Z,25.13
2023-05-14T19:12:38.210Z,25.08
2023-05-14T19:15:07.305Z,25.10
2023-05-14T19:17:35.373Z,25.05
2023-05-14T19:20:04.400Z,25.06
2023-05-14T19:22:32.416Z,24.96
2023-05-14T19:25:01.816Z,24.88
2023-05-14T19:27:30.405Z,24.85
2023-05-14T19:29:58.402Z,25.02
2023-05-14T19:32:26.498Z,25.00
2023-05-14T19:34:54.564Z,24.98
2023-05-14T19:37:22.913Z,24.93
2023-05-14T19:39:53.820Z,24.92
2023-05-14T19:42:24.923Z,24.96
2023-05-14T19:44:53.093Z,24.94
2023-05-14T19:47:21.230Z,24.92
2023-05-14T19:49:49.121Z,24.90
2023-05-14T19:52:17.113Z,24.89
2023-05-14T19:54:45.111Z,24.86
2023-05-14T19:57:13.157Z,24.86
2023-05-14T19:59:42.596Z,24.81
2023-05-14T20:02:12.417Z,24.82
2023-05-14T20:04:40.872Z,24.75
2023-05-14T20:07:10.038Z,24.79
2023-05-14T20:09:38.148Z,24.75
2023-05-14T20:12:06.712Z,24.76
2023-05-14T20:14:34.753Z,24.73
2023-05-14T20:17:04.563Z,24.71
2023-05-14T20:19:32.608Z,24.71
2023-05-14T20:22:00.536Z,24.69
2023-05-14T20:24:28.968Z,24.70
2023-05-14T20:26:57.232Z,24.70
2023-05-14T20:29:25.310Z,24.65
2023-05-14T20:31:53.435Z,24.69
2023-05-14T20:34:22.826Z,24.67
2023-05-14T20:36:51.899Z,24.68
2023-05-14T20:39:19.902Z,24.69
2023-05-14T20:41:47.958Z,24.56
2023-05-14T20:44:16.437Z,24.67
2023-05-14T20:46:45.880Z,24.68
2023-05-14T20:49:15.742Z,24.52
2023-05-14T20:51:45.218Z,24.33
2023-05-14T20:54:13.185Z,24.67
2023-05-14T20:56:41.282Z,24.68
2023-05-14T20:59:09.230Z,24.68
2023-05-14T21:01:37.262Z,24.66
2023-05-14T21:04:06.238Z,24.67
2023-05-14T21:06:34.388Z,24.62
2023-05-14T21:09:03.758Z,24.67
2023-05-14T21:11:31.866Z,24.64
2023-05-14T21:13:59.823Z,24.66
2023-05-14T21:16:28.052Z,24.65
2023-05-14T21:18:56.227Z,24.66
2023-05-14T21:21:24.369Z,24.65
2023-05-14T21:23:52.421Z,24.65
2023-05-14T21:26:22.810Z,24.66
2023-05-14T21:28:50.716Z,24.65
2023-05-14T21:31:18.816Z,24.64
2023-05-14T21:33:46.775Z,24.35
2023-05-14T21:36:14.902Z,24.65
2023-05-14T21:38:42.883Z,24.60
2023-05-14T21:41:10.969Z,24.63
2023-05-14T21:43:40.708Z,24.62
2023-05-14T21:46:08.866Z,24.62
2023-05-14T21:48:37.046Z,24.62
2023-05-14T21:51:05.703Z,24.60
2023-05-14T21:53:34.683Z,24.62
2023-05-14T21:56:02.721Z,24.61
2023-05-14T21:58:30.726Z,24.60
2023-05-14T22:01:00.359Z,24.61
2023-05-14T22:03:28.474Z,24.20
2023-05-14T22:05:56.498Z,24.55
2023-05-14T22:08:24.845Z,24.52
2023-05-14T22:10:52.825Z,24.50
2023-05-14T22:13:20.970Z,24.49
2023-05-14T22:15:51.291Z,24.47
2023-05-14T22:18:22.613Z,24.42
2023-05-14T22:20:51.224Z,24.41
2023-05-14T22:23:19.260Z,24.39
2023-05-14T22:25:47.366Z,24.32
2023-05-14T22:28:15.424Z,24.35
2023-05-14T22:30:43.346Z,24.34
2023-05-14T22:33:11.574Z,24.30
2023-05-14T22:35:41.008Z,24.29
2023-05-14T22:38:09.161Z,24.25
2023-05-14T22:40:37.144Z,24.23
2023-05-14T22:43:05.035Z,24.22
2023-05-14T22:45:33.115Z,24.20
2023-05-14T22:48:01.138Z,24.19
2023-05-14T22:50:29.167Z,24.06
2023-05-14T22:52:58.525Z,24.17
2023-05-14T22:55:26.910Z,24.15
2023-05-14T22:57:55.264Z,24.12
2023-05-14T23:00:23.797Z,24.11
2023-05-14T23:02:52.005Z,24.09
2023-05-14T23:05:20.064Z,24.08
2023-05-14T23:07:48.072Z,24.08
2023-05-14T23:10:17.596Z,24.06
2023-05-14T23:12:45.623Z,24.05
2023-05-14T23:15:13.596Z,24.02
2023-05-14T23:17:41.963Z,24.02
2023-05-14T23:20:12.574Z,24.01
2023-05-14T23:22:40.780Z,23.97
2023-05-14T23:30:06.831Z,23.95
2023-05-14T23:32:34.863Z,23.90
2023-05-14T23:35:03.107Z,23.90
2023-05-14T23:37:31.133Z,23.89
2023-05-14T23:39:59.139Z,23.89
2023-05-14T23:42:27.177Z,23.87
2023-05-14T23:44:56.621Z,23.88
2023-05-14T23:47:24.759Z,23.84
2023-05-14T23:49:52.739Z,23.85
2023-05-14T23:52:20.683Z,23.80
2023-05-14T23:54:48.607Z,23.83
2023-05-14T23:57:16.688Z,23.82
2023-05-14T23:59:44.663Z,23.82
